KLRF

Little Rock AFB Airport

Jacksonville, Arkansas, USA
METAR KLRF 191516Z 11006KT 10SM OVC006 25/25 A2993 RMK AO2A CIG 004V006 CIG 005 RWY07 SLP135
Observed Flight Rules
Aug-19 @ 15:16 UTC (21 minutes ago) Instrument Flight Rules
Wind Visibility Clouds
110° at 6 knots 10 miles
  • Overcast at 600' AGL
Temperatures Readings
Current 25°C / 77°F
Dewpoint 25°C / 77°F
Humidity 100%
Altimeter 29.93" Hg
Pressure 1013.5 hPa
Elevation 95
METAR KLRF 191516Z 11006KT 10SM OVC006 25/25 A2993 RMK AO2A CIG 004V006 CIG 005 RWY07 SLP135
Observed Flight Rules
Aug-19 @ 15:16 UTC
(21 minutes ago)
IFR
Wind Visibility
110° at 6 knots 10 miles
Clouds
  • Overcast at 600' AGL
Temperature Dewpoint
25°C / 77°F 25°C / 77°F
Humidity Altimeter Pressure
100% 29.93" Hg 1013.5 hPa